sensor_id;sensor_type;location;lat;lon;timestamp;temperature;humidity
5200;DHT22;2619;47.868;11.892;2022-07-29T00:00:58;17.90;99.90
5200;DHT22;2619;47.868;11.892;2022-07-29T00:03:23;17.80;99.90
5200;DHT22;2619;47.868;11.892;2022-07-29T00:05:49;17.70;99.90
5200;DHT22;2619;47.868;11.892;2022-07-29T00:08:14;17.70;99.90
5200;DHT22;2619;47.868;11.892;2022-07-29T00:10:41;17.60;99.90
5200;DHT22;2619;47.868;11.892;2022-07-29T00:13:07;17.60;99.90
5200;DHT22;2619;47.868;11.892;2022-07-29T00:15:33;17.50;99.90
5200;DHT22;2619;47.868;11.892;2022-07-29T00:17:58;17.60;99.90
5200;DHT22;2619;47.868;11.892;2022-07-29T00:20:24;17.60;99.90
5200;DHT22;2619;47.868;11.892;2022-07-29T00:22:49;17.50;99.90
5200;DHT22;2619;47.868;11.892;2022-07-29T00:25:15;17.40;99.90
5200;DHT22;2619;47.868;11.892;2022-07-29T00:27:41;17.30;99.90
5200;DHT22;2619;47.868;11.892;2022-07-29T00:30:07;17.20;99.90
5200;DHT22;2619;47.868;11.892;2022-07-29T00:32:33;17.20;99.90
5200;DHT22;2619;47.868;11.892;2022-07-29T00:34:58;17.10;99.90
5200;DHT22;2619;47.868;11.892;2022-07-29T00:37:43;17.10;99.90
5200;DHT22;2619;47.868;11.892;2022-07-29T00:40:09;17.20;99.90
5200;DHT22;2619;47.868;11.892;2022-07-29T00:42:47;17.20;99.90
5200;DHT22;2619;47.868;11.892;2022-07-29T00:45:14;17.20;99.90
5200;DHT22;2619;47.868;11.892;2022-07-29T00:47:40;17.30;99.90
5200;DHT22;2619;47.868;11.892;2022-07-29T00:50:07;17.40;99.90
5200;DHT22;2619;47.868;11.892;2022-07-29T00:52:35;17.40;99.90
5200;DHT22;2619;47.868;11.892;2022-07-29T00:55:03;17.50;99.90
5200;DHT22;2619;47.868;11.892;2022-07-29T00:57:29;17.50;99.90
5200;DHT22;2619;47.868;11.892;2022-07-29T00:59:55;17.60;99.90
5200;DHT22;2619;47.868;11.892;2022-07-29T01:02:21;17.50;99.90
5200;DHT22;2619;47.868;11.892;2022-07-29T01:04:46;17.50;99.90
5200;DHT22;2619;47.868;11.892;2022-07-29T01:07:12;17.40;99.90
5200;DHT22;2619;47.868;11.892;2022-07-29T01:09:38;17.30;99.90
5200;DHT22;2619;47.868;11.892;2022-07-29T01:12:05;17.30;99.90
5200;DHT22;2619;47.868;11.892;2022-07-29T01:14:31;17.30;99.90
5200;DHT22;2619;47.868;11.892;2022-07-29T01:25:09;17.50;99.90
5200;DHT22;2619;47.868;11.892;2022-07-29T01:30:54;17.40;99.90
5200;DHT22;2619;47.868;11.892;2022-07-29T01:33:22;17.30;99.90
5200;DHT22;2619;47.868;11.892;2022-07-29T01:36:12;17.30;99.90
5200;DHT22;2619;47.868;11.892;2022-07-29T01:38:39;17.20;99.90
5200;DHT22;2619;47.868;11.892;2022-07-29T01:41:09;17.10;99.90
5200;DHT22;2619;47.868;11.892;2022-07-29T01:43:50;17.00;99.90
5200;DHT22;2619;47.868;11.892;2022-07-29T01:46:24;17.00;99.90
5200;DHT22;2619;47.868;11.892;2022-07-29T01:48:56;16.90;99.90
5200;DHT22;2619;47.868;11.892;2022-07-29T01:51:31;17.00;99.90
5200;DHT22;2619;47.868;11.892;2022-07-29T01:54:05;17.00;99.90
5200;DHT22;2619;47.868;11.892;2022-07-29T01:56:32;17.00;99.90
5200;DHT22;2619;47.868;11.892;2022-07-29T01:58:59;16.90;99.90
5200;DHT22;2619;47.868;11.892;2022-07-29T02:01:27;16.90;99.90
5200;DHT22;2619;47.868;11.892;2022-07-29T02:03:56;16.90;99.90
5200;DHT22;2619;47.868;11.892;2022-07-29T02:06:22;16.90;99.90
5200;DHT22;2619;47.868;11.892;2022-07-29T02:08:50;16.90;99.90
5200;DHT22;2619;47.868;11.892;2022-07-29T02:11:16;16.90;99.90
5200;DHT22;2619;47.868;11.892;2022-07-29T02:13:43;16.80;99.90
5200;DHT22;2619;47.868;11.892;2022-07-29T02:16:10;16.70;99.90
5200;DHT22;2619;47.868;11.892;2022-07-29T02:18:37;16.70;99.90
5200;DHT22;2619;47.868;11.892;2022-07-29T02:21:04;16.40;99.90
5200;DHT22;2619;47.868;11.892;2022-07-29T02:23:32;16.40;99.90
5200;DHT22;2619;47.868;11.892;2022-07-29T02:26:01;16.30;99.90
5200;DHT22;2619;47.868;11.892;2022-07-29T02:28:29;16.40;99.90
5200;DHT22;2619;47.868;11.892;2022-07-29T02:30:59;16.40;99.90
5200;DHT22;2619;47.868;11.892;2022-07-29T02:33:26;16.20;99.90
5200;DHT22;2619;47.868;11.892;2022-07-29T02:35:52;16.10;99.90
5200;DHT22;2619;47.868;11.892;2022-07-29T02:38:20;16.00;99.90
5200;DHT22;2619;47.868;11.892;2022-07-29T02:41:10;16.10;99.90
5200;DHT22;2619;47.868;11.892;2022-07-29T02:43:37;16.10;99.90
5200;DHT22;2619;47.868;11.892;2022-07-29T02:46:12;16.10;99.90
5200;DHT22;2619;47.868;11.892;2022-07-29T02:48:43;16.10;99.90
5200;DHT22;2619;47.868;11.892;2022-07-29T02:51:27;16.00;99.90
5200;DHT22;2619;47.868;11.892;2022-07-29T02:53:56;16.10;99.90
5200;DHT22;2619;47.868;11.892;2022-07-29T02:56:26;16.10;99.90
5200;DHT22;2619;47.868;11.892;2022-07-29T02:58:58;16.00;99.90
5200;DHT22;2619;47.868;11.892;2022-07-29T03:01:28;16.00;99.90
5200;DHT22;2619;47.868;11.892;2022-07-29T03:03:55;15.90;99.90
5200;DHT22;2619;47.868;11.892;2022-07-29T03:06:24;15.90;99.90
5200;DHT22;2619;47.868;11.892;2022-07-29T03:08:51;15.80;99.90
5200;DHT22;2619;47.868;11.892;2022-07-29T03:11:17;15.70;99.90
5200;DHT22;2619;47.868;11.892;2022-07-29T03:13:43;15.60;99.90
5200;DHT22;2619;47.868;11.892;2022-07-29T03:16:10;15.50;99.90
5200;DHT22;2619;47.868;11.892;2022-07-29T03:18:36;15.50;99.90
5200;DHT22;2619;47.868;11.892;2022-07-29T03:21:03;15.40;99.90
5200;DHT22;2619;47.868;11.892;2022-07-29T03:23:29;15.40;99.90
5200;DHT22;2619;47.868;11.892;2022-07-29T03:25:55;15.40;99.90
5200;DHT22;2619;47.868;11.892;2022-07-29T03:28:21;15.30;99.90
5200;DHT22;2619;47.868;11.892;2022-07-29T03:30:47;15.20;99.90
5200;DHT22;2619;47.868;11.892;2022-07-29T03:33:13;15.10;99.90
5200;DHT22;2619;47.868;11.892;2022-07-29T03:35:39;15.00;99.90
5200;DHT22;2619;47.868;11.892;2022-07-29T03:38:04;15.10;99.90
5200;DHT22;2619;47.868;11.892;2022-07-29T03:40:35;15.00;99.90
5200;DHT22;2619;47.868;11.892;2022-07-29T03:43:04;15.00;99.90
5200;DHT22;2619;47.868;11.892;2022-07-29T03:45:32;14.90;99.90
5200;DHT22;2619;47.868;11.892;2022-07-29T03:48:07;14.90;99.90
5200;DHT22;2619;47.868;11.892;2022-07-29T03:50:34;14.80;99.90
5200;DHT22;2619;47.868;11.892;2022-07-29T03:53:01;14.80;99.90
5200;DHT22;2619;47.868;11.892;2022-07-29T03:55:29;14.80;99.90
5200;DHT22;2619;47.868;11.892;2022-07-29T03:57:57;14.70;99.90
5200;DHT22;2619;47.868;11.892;2022-07-29T04:00:24;14.70;99.90
5200;DHT22;2619;47.868;11.892;2022-07-29T04:02:49;14.70;99.90
5200;DHT22;2619;47.868;11.892;2022-07-29T04:05:18;14.70;99.90
5200;DHT22;2619;47.868;11.892;2022-07-29T04:07:45;14.80;99.90
5200;DHT22;2619;47.868;11.892;2022-07-29T04:10:11;14.80;99.90
5200;DHT22;2619;47.868;11.892;2022-07-29T04:12:36;14.70;99.90
5200;DHT22;2619;47.868;11.892;2022-07-29T04:15:04;14.70;99.90
5200;DHT22;2619;47.868;11.892;2022-07-29T04:17:30;14.70;99.90
5200;DHT22;2619;47.868;11.892;2022-07-29T04:19:55;14.70;99.90
5200;DHT22;2619;47.868;11.892;2022-07-29T04:22:21;14.80;99.90
5200;DHT22;2619;47.868;11.892;2022-07-29T04:24:46;14.80;99.90
5200;DHT22;2619;47.868;11.892;2022-07-29T04:27:12;14.90;99.90
5200;DHT22;2619;47.868;11.892;2022-07-29T04:29:38;15.00;99.90
5200;DHT22;2619;47.868;11.892;2022-07-29T04:32:04;15.10;99.90
5200;DHT22;2619;47.868;11.892;2022-07-29T04:34:29;15.10;99.90
5200;DHT22;2619;47.868;11.892;2022-07-29T04:36:55;15.10;99.90
5200;DHT22;2619;47.868;11.892;2022-07-29T04:39:21;15.10;99.90
5200;DHT22;2619;47.868;11.892;2022-07-29T04:41:46;15.10;99.90
5200;DHT22;2619;47.868;11.892;2022-07-29T04:44:12;15.20;99.90
5200;DHT22;2619;47.868;11.892;2022-07-29T04:46:38;15.30;99.90
5200;DHT22;2619;47.868;11.892;2022-07-29T04:49:04;15.40;99.90
5200;DHT22;2619;47.868;11.892;2022-07-29T04:51:30;15.60;99.90
5200;DHT22;2619;47.868;11.892;2022-07-29T04:53:56;15.70;99.90
5200;DHT22;2619;47.868;11.892;2022-07-29T04:56:22;15.80;99.90
5200;DHT22;2619;47.868;11.892;2022-07-29T04:58:47;16.00;99.90
5200;DHT22;2619;47.868;11.892;2022-07-29T05:01:14;16.10;99.90
5200;DHT22;2619;47.868;11.892;2022-07-29T05:03:40;16.20;99.90
5200;DHT22;2619;47.868;11.892;2022-07-29T05:06:05;16.40;99.90
5200;DHT22;2619;47.868;11.892;2022-07-29T05:08:31;16.60;99.90
5200;DHT22;2619;47.868;11.892;2022-07-29T05:10:56;16.80;99.90
5200;DHT22;2619;47.868;11.892;2022-07-29T05:13:22;17.10;99.90
5200;DHT22;2619;47.868;11.892;2022-07-29T05:15:48;17.40;99.90
5200;DHT22;2619;47.868;11.892;2022-07-29T05:18:13;17.60;99.90
5200;DHT22;2619;47.868;11.892;2022-07-29T05:20:39;17.90;99.90
5200;DHT22;2619;47.868;11.892;2022-07-29T05:23:05;18.30;99.90
5200;DHT22;2619;47.868;11.892;2022-07-29T05:25:30;18.60;99.90
5200;DHT22;2619;47.868;11.892;2022-07-29T05:27:56;19.00;99.90
5200;DHT22;2619;47.868;11.892;2022-07-29T05:30:22;19.90;99.90
5200;DHT22;2619;47.868;11.892;2022-07-29T05:32:48;20.60;99.90
5200;DHT22;2619;47.868;11.892;2022-07-29T05:35:14;21.00;99.90
5200;DHT22;2619;47.868;11.892;2022-07-29T05:37:41;21.20;99.90
5200;DHT22;2619;47.868;11.892;2022-07-29T05:40:07;21.20;99.90
5200;DHT22;2619;47.868;11.892;2022-07-29T05:42:33;21.60;99.90
5200;DHT22;2619;47.868;11.892;2022-07-29T05:45:00;22.90;99.90
5200;DHT22;2619;47.868;11.892;2022-07-29T05:47:26;23.80;99.90
5200;DHT22;2619;47.868;11.892;2022-07-29T05:49:52;24.20;99.90
5200;DHT22;2619;47.868;11.892;2022-07-29T05:52:17;25.50;99.90
5200;DHT22;2619;47.868;11.892;2022-07-29T05:54:43;26.40;99.90
5200;DHT22;2619;47.868;11.892;2022-07-29T05:57:16;26.60;99.90
5200;DHT22;2619;47.868;11.892;2022-07-29T05:59:42;26.30;99.90
5200;DHT22;2619;47.868;11.892;2022-07-29T06:02:07;25.90;99.90
5200;DHT22;2619;47.868;11.892;2022-07-29T06:04:36;25.30;99.90
5200;DHT22;2619;47.868;11.892;2022-07-29T06:07:01;24.70;99.90
5200;DHT22;2619;47.868;11.892;2022-07-29T06:09:27;24.20;99.90
5200;DHT22;2619;47.868;11.892;2022-07-29T06:11:53;24.10;99.90
5200;DHT22;2619;47.868;11.892;2022-07-29T06:14:18;24.10;99.90
5200;DHT22;2619;47.868;11.892;2022-07-29T06:16:45;24.10;99.90
5200;DHT22;2619;47.868;11.892;2022-07-29T06:19:10;24.10;99.90
5200;DHT22;2619;47.868;11.892;2022-07-29T06:21:36;24.00;99.90
5200;DHT22;2619;47.868;11.892;2022-07-29T06:24:02;24.10;99.90
5200;DHT22;2619;47.868;11.892;2022-07-29T06:26:27;25.30;99.90
5200;DHT22;2619;47.868;11.892;2022-07-29T06:28:53;26.50;99.90
5200;DHT22;2619;47.868;11.892;2022-07-29T06:31:18;27.40;99.90
5200;DHT22;2619;47.868;11.892;2022-07-29T06:33:44;28.60;99.90
5200;DHT22;2619;47.868;11.892;2022-07-29T06:36:10;29.50;99.20
5200;DHT22;2619;47.868;11.892;2022-07-29T06:38:36;30.20;98.20
5200;DHT22;2619;47.868;11.892;2022-07-29T06:41:03;31.10;96.70
5200;DHT22;2619;47.868;11.892;2022-07-29T06:43:36;31.40;95.30
5200;DHT22;2619;47.868;11.892;2022-07-29T06:46:16;31.80;92.40
5200;DHT22;2619;47.868;11.892;2022-07-29T06:48:44;32.50;91.20
5200;DHT22;2619;47.868;11.892;2022-07-29T06:51:10;33.10;90.10
5200;DHT22;2619;47.868;11.892;2022-07-29T06:53:37;33.50;87.60
5200;DHT22;2619;47.868;11.892;2022-07-29T06:56:04;33.90;85.40
5200;DHT22;2619;47.868;11.892;2022-07-29T06:58:30;34.40;81.70
5200;DHT22;2619;47.868;11.892;2022-07-29T07:00:57;34.40;80.40
5200;DHT22;2619;47.868;11.892;2022-07-29T07:03:22;33.90;79.60
5200;DHT22;2619;47.868;11.892;2022-07-29T07:05:48;33.80;82.10
5200;DHT22;2619;47.868;11.892;2022-07-29T07:08:14;33.40;85.60
5200;DHT22;2619;47.868;11.892;2022-07-29T07:10:42;33.60;82.60
5200;DHT22;2619;47.868;11.892;2022-07-29T07:13:07;33.40;82.20
5200;DHT22;2619;47.868;11.892;2022-07-29T07:15:33;33.70;79.20
5200;DHT22;2619;47.868;11.892;2022-07-29T07:18:00;33.70;81.40
5200;DHT22;2619;47.868;11.892;2022-07-29T07:20:26;33.90;78.80
5200;DHT22;2619;47.868;11.892;2022-07-29T07:22:51;33.70;78.50
5200;DHT22;2619;47.868;11.892;2022-07-29T07:25:17;33.50;76.60
5200;DHT22;2619;47.868;11.892;2022-07-29T07:27:44;33.40;78.00
5200;DHT22;2619;47.868;11.892;2022-07-29T07:30:10;33.30;77.30
5200;DHT22;2619;47.868;11.892;2022-07-29T07:32:36;32.50;80.30
5200;DHT22;2619;47.868;11.892;2022-07-29T07:35:03;32.60;79.80
5200;DHT22;2619;47.868;11.892;2022-07-29T07:37:29;32.50;77.50
5200;DHT22;2619;47.868;11.892;2022-07-29T07:39:55;32.10;80.50
5200;DHT22;2619;47.868;11.892;2022-07-29T07:42:20;32.00;81.50
5200;DHT22;2619;47.868;11.892;2022-07-29T07:44:46;32.00;81.60
5200;DHT22;2619;47.868;11.892;2022-07-29T07:47:14;31.50;80.90
5200;DHT22;2619;47.868;11.892;2022-07-29T07:49:40;30.60;80.90
5200;DHT22;2619;47.868;11.892;2022-07-29T07:52:05;29.80;83.10
5200;DHT22;2619;47.868;11.892;2022-07-29T07:54:31;29.20;85.30
5200;DHT22;2619;47.868;11.892;2022-07-29T07:56:57;29.20;87.60
5200;DHT22;2619;47.868;11.892;2022-07-29T07:59:22;29.50;88.40
5200;DHT22;2619;47.868;11.892;2022-07-29T08:01:49;29.90;86.20
5200;DHT22;2619;47.868;11.892;2022-07-29T08:04:14;30.10;86.20
5200;DHT22;2619;47.868;11.892;2022-07-29T08:06:40;30.70;83.80
5200;DHT22;2619;47.868;11.892;2022-07-29T08:09:06;31.40;82.40
5200;DHT22;2619;47.868;11.892;2022-07-29T08:11:32;32.00;82.00
5200;DHT22;2619;47.868;11.892;2022-07-29T08:13:58;31.30;82.30
5200;DHT22;2619;47.868;11.892;2022-07-29T08:16:23;30.20;86.50
5200;DHT22;2619;47.868;11.892;2022-07-29T08:18:50;30.80;88.50
5200;DHT22;2619;47.868;11.892;2022-07-29T08:21:17;30.80;85.60
5200;DHT22;2619;47.868;11.892;2022-07-29T08:23:44;29.70;86.60
5200;DHT22;2619;47.868;11.892;2022-07-29T08:26:16;29.70;90.50
5200;DHT22;2619;47.868;11.892;2022-07-29T08:28:42;29.80;88.50
5200;DHT22;2619;47.868;11.892;2022-07-29T08:31:14;29.60;89.50
5200;DHT22;2619;47.868;11.892;2022-07-29T08:33:40;29.60;90.50
5200;DHT22;2619;47.868;11.892;2022-07-29T08:36:06;29.70;90.20
5200;DHT22;2619;47.868;11.892;2022-07-29T08:38:32;29.70;89.20
5200;DHT22;2619;47.868;11.892;2022-07-29T08:40:58;30.00;91.40
5200;DHT22;2619;47.868;11.892;2022-07-29T08:43:25;30.80;89.60
5200;DHT22;2619;47.868;11.892;2022-07-29T08:45:51;30.70;89.40
5200;DHT22;2619;47.868;11.892;2022-07-29T08:48:19;31.00;88.30
5200;DHT22;2619;47.868;11.892;2022-07-29T08:50:46;30.10;89.60
5200;DHT22;2619;47.868;11.892;2022-07-29T08:53:15;30.60;88.90
5200;DHT22;2619;47.868;11.892;2022-07-29T08:55:43;31.10;90.70
5200;DHT22;2619;47.868;11.892;2022-07-29T08:58:10;31.30;85.10
5200;DHT22;2619;47.868;11.892;2022-07-29T09:00:38;31.50;89.40
5200;DHT22;2619;47.868;11.892;2022-07-29T09:03:06;31.80;85.50
5200;DHT22;2619;47.868;11.892;2022-07-29T09:05:33;31.20;87.30
5200;DHT22;2619;47.868;11.892;2022-07-29T09:07:59;31.40;82.90
5200;DHT22;2619;47.868;11.892;2022-07-29T09:10:25;31.20;84.70
5200;DHT22;2619;47.868;11.892;2022-07-29T09:12:51;31.00;82.50
5200;DHT22;2619;47.868;11.892;2022-07-29T09:15:17;31.00;90.00
5200;DHT22;2619;47.868;11.892;2022-07-29T09:17:45;30.70;88.10
5200;DHT22;2619;47.868;11.892;2022-07-29T09:20:13;30.60;92.00
5200;DHT22;2619;47.868;11.892;2022-07-29T09:22:39;30.70;90.70
5200;DHT22;2619;47.868;11.892;2022-07-29T09:25:05;30.20;90.70
5200;DHT22;2619;47.868;11.892;2022-07-29T09:27:31;29.90;91.10
5200;DHT22;2619;47.868;11.892;2022-07-29T09:32:29;29.40;90.30
5200;DHT22;2619;47.868;11.892;2022-07-29T09:35:14;29.70;91.10
5200;DHT22;2619;47.868;11.892;2022-07-29T09:37:40;29.70;87.80
5200;DHT22;2619;47.868;11.892;2022-07-29T09:40:14;30.00;91.10
5200;DHT22;2619;47.868;11.892;2022-07-29T09:42:41;30.20;88.30
5200;DHT22;2619;47.868;11.892;2022-07-29T09:45:07;30.50;87.90
5200;DHT22;2619;47.868;11.892;2022-07-29T09:47:44;30.40;87.60
5200;DHT22;2619;47.868;11.892;2022-07-29T09:50:11;30.50;85.30
5200;DHT22;2619;47.868;11.892;2022-07-29T09:52:51;30.50;85.20
5200;DHT22;2619;47.868;11.892;2022-07-29T09:55:18;30.40;84.60
5200;DHT22;2619;47.868;11.892;2022-07-29T09:57:45;30.40;85.20
5200;DHT22;2619;47.868;11.892;2022-07-29T10:00:13;30.50;82.20
5200;DHT22;2619;47.868;11.892;2022-07-29T10:02:42;30.30;89.90
5200;DHT22;2619;47.868;11.892;2022-07-29T10:07:44;31.10;90.40
5200;DHT22;2619;47.868;11.892;2022-07-29T10:10:17;31.50;88.50
5200;DHT22;2619;47.868;11.892;2022-07-29T10:12:55;31.50;85.40
5200;DHT22;2619;47.868;11.892;2022-07-29T10:15:23;31.30;80.90
5200;DHT22;2619;47.868;11.892;2022-07-29T10:17:50;30.60;79.50
5200;DHT22;2619;47.868;11.892;2022-07-29T10:20:16;30.60;82.50
5200;DHT22;2619;47.868;11.892;2022-07-29T10:22:42;31.10;80.10
5200;DHT22;2619;47.868;11.892;2022-07-29T10:25:10;31.20;79.50
5200;DHT22;2619;47.868;11.892;2022-07-29T10:27:36;31.10;80.20
5200;DHT22;2619;47.868;11.892;2022-07-29T10:30:03;31.20;81.70
5200;DHT22;2619;47.868;11.892;2022-07-29T10:32:54;31.30;78.60
5200;DHT22;2619;47.868;11.892;2022-07-29T10:38:05;31.00;80.80
5200;DHT22;2619;47.868;11.892;2022-07-29T10:43:30;31.80;84.20
5200;DHT22;2619;47.868;11.892;2022-07-29T10:45:59;32.00;83.40
5200;DHT22;2619;47.868;11.892;2022-07-29T10:48:26;32.10;82.00
5200;DHT22;2619;47.868;11.892;2022-07-29T10:50:55;31.50;77.20
5200;DHT22;2619;47.868;11.892;2022-07-29T10:53:25;30.90;80.40
5200;DHT22;2619;47.868;11.892;2022-07-29T11:01:45;31.30;83.70
5200;DHT22;2619;47.868;11.892;2022-07-29T11:04:10;32.00;83.00
5200;DHT22;2619;47.868;11.892;2022-07-29T11:09:29;32.80;80.60
5200;DHT22;2619;47.868;11.892;2022-07-29T11:11:56;33.30;82.60
5200;DHT22;2619;47.868;11.892;2022-07-29T11:17:19;32.70;81.00
5200;DHT22;2619;47.868;11.892;2022-07-29T11:19:44;32.70;78.50
5200;DHT22;2619;47.868;11.892;2022-07-29T11:22:11;32.50;79.90
5200;DHT22;2619;47.868;11.892;2022-07-29T11:24:38;31.80;78.80
5200;DHT22;2619;47.868;11.892;2022-07-29T11:27:18;31.50;80.80
5200;DHT22;2619;47.868;11.892;2022-07-29T11:32:16;31.40;82.20
5200;DHT22;2619;47.868;11.892;2022-07-29T11:34:45;31.40;82.50
5200;DHT22;2619;47.868;11.892;2022-07-29T11:44:57;31.30;78.60
5200;DHT22;2619;47.868;11.892;2022-07-29T11:47:23;31.00;79.80
5200;DHT22;2619;47.868;11.892;2022-07-29T11:49:50;31.00;80.70
5200;DHT22;2619;47.868;11.892;2022-07-29T11:52:17;30.80;81.10
5200;DHT22;2619;47.868;11.892;2022-07-29T11:54:43;30.40;83.00
5200;DHT22;2619;47.868;11.892;2022-07-29T11:57:10;30.30;84.70
5200;DHT22;2619;47.868;11.892;2022-07-29T11:59:39;30.20;81.60
5200;DHT22;2619;47.868;11.892;2022-07-29T12:02:08;30.00;84.90
5200;DHT22;2619;47.868;11.892;2022-07-29T12:04:51;29.70;82.10
5200;DHT22;2619;47.868;11.892;2022-07-29T12:07:16;29.60;82.60
5200;DHT22;2619;47.868;11.892;2022-07-29T12:09:53;29.50;82.40
5200;DHT22;2619;47.868;11.892;2022-07-29T12:12:19;29.40;83.10
5200;DHT22;2619;47.868;11.892;2022-07-29T12:14:45;29.60;81.10
5200;DHT22;2619;47.868;11.892;2022-07-29T12:17:33;29.70;85.40
5200;DHT22;2619;47.868;11.892;2022-07-29T12:20:02;30.00;81.10
5200;DHT22;2619;47.868;11.892;2022-07-29T12:24:55;30.40;82.20
5200;DHT22;2619;47.868;11.892;2022-07-29T12:27:25;30.70;83.50
5200;DHT22;2619;47.868;11.892;2022-07-29T12:29:59;30.80;85.10
5200;DHT22;2619;47.868;11.892;2022-07-29T12:32:39;30.70;83.70
5200;DHT22;2619;47.868;11.892;2022-07-29T12:35:10;30.50;79.40
5200;DHT22;2619;47.868;11.892;2022-07-29T12:37:38;30.40;78.50
5200;DHT22;2619;47.868;11.892;2022-07-29T12:40:05;30.40;82.10
5200;DHT22;2619;47.868;11.892;2022-07-29T12:42:31;30.40;81.10
5200;DHT22;2619;47.868;11.892;2022-07-29T12:44:57;30.50;79.20
5200;DHT22;2619;47.868;11.892;2022-07-29T12:47:23;30.80;79.60
5200;DHT22;2619;47.868;11.892;2022-07-29T12:49:49;30.70;76.80
5200;DHT22;2619;47.868;11.892;2022-07-29T12:52:29;31.00;78.20
5200;DHT22;2619;47.868;11.892;2022-07-29T12:54:55;31.30;82.60
5200;DHT22;2619;47.868;11.892;2022-07-29T12:57:21;31.40;79.20
5200;DHT22;2619;47.868;11.892;2022-07-29T13:02:36;31.70;76.00
5200;DHT22;2619;47.868;11.892;2022-07-29T13:05:04;31.50;75.50
5200;DHT22;2619;47.868;11.892;2022-07-29T13:07:32;31.70;79.20
5200;DHT22;2619;47.868;11.892;2022-07-29T13:10:17;31.90;80.50
5200;DHT22;2619;47.868;11.892;2022-07-29T13:13:06;31.60;74.70
5200;DHT22;2619;47.868;11.892;2022-07-29T13:15:33;31.30;74.10
5200;DHT22;2619;47.868;11.892;2022-07-29T13:17:59;31.00;74.00
5200;DHT22;2619;47.868;11.892;2022-07-29T13:20:27;30.90;76.50
5200;DHT22;2619;47.868;11.892;2022-07-29T13:22:58;30.60;76.80
5200;DHT22;2619;47.868;11.892;2022-07-29T13:25:27;30.40;77.70
5200;DHT22;2619;47.868;11.892;2022-07-29T13:27:54;30.70;78.50
5200;DHT22;2619;47.868;11.892;2022-07-29T13:30:20;30.70;78.50
5200;DHT22;2619;47.868;11.892;2022-07-29T13:32:47;30.80;80.00
5200;DHT22;2619;47.868;11.892;2022-07-29T13:35:13;30.90;78.00
5200;DHT22;2619;47.868;11.892;2022-07-29T13:37:39;30.80;79.40
5200;DHT22;2619;47.868;11.892;2022-07-29T13:40:09;30.80;78.50
5200;DHT22;2619;47.868;11.892;2022-07-29T13:42:35;30.70;78.70
5200;DHT22;2619;47.868;11.892;2022-07-29T13:45:01;30.80;78.80
5200;DHT22;2619;47.868;11.892;2022-07-29T13:47:27;30.90;76.40
5200;DHT22;2619;47.868;11.892;2022-07-29T13:49:54;30.90;78.90
5200;DHT22;2619;47.868;11.892;2022-07-29T13:52:20;31.10;75.00
5200;DHT22;2619;47.868;11.892;2022-07-29T13:54:46;31.30;77.00
5200;DHT22;2619;47.868;11.892;2022-07-29T13:57:12;31.20;77.30
5200;DHT22;2619;47.868;11.892;2022-07-29T13:59:38;31.00;77.10
5200;DHT22;2619;47.868;11.892;2022-07-29T14:02:04;31.10;75.10
5200;DHT22;2619;47.868;11.892;2022-07-29T14:04:31;30.90;76.60
5200;DHT22;2619;47.868;11.892;2022-07-29T14:06:57;30.90;77.00
5200;DHT22;2619;47.868;11.892;2022-07-29T14:09:22;30.90;78.50
5200;DHT22;2619;47.868;11.892;2022-07-29T14:11:48;30.80;80.70
5200;DHT22;2619;47.868;11.892;2022-07-29T14:14:15;30.80;78.30
5200;DHT22;2619;47.868;11.892;2022-07-29T14:16:41;30.50;75.80
5200;DHT22;2619;47.868;11.892;2022-07-29T14:19:06;30.40;76.70
5200;DHT22;2619;47.868;11.892;2022-07-29T14:21:32;30.40;78.50
5200;DHT22;2619;47.868;11.892;2022-07-29T14:23:58;30.40;76.40
5200;DHT22;2619;47.868;11.892;2022-07-29T14:26:23;30.50;81.80
5200;DHT22;2619;47.868;11.892;2022-07-29T14:28:49;30.50;76.90
5200;DHT22;2619;47.868;11.892;2022-07-29T14:31:15;30.30;78.10
5200;DHT22;2619;47.868;11.892;2022-07-29T14:33:41;30.20;79.70
5200;DHT22;2619;47.868;11.892;2022-07-29T14:36:07;30.30;81.70
5200;DHT22;2619;47.868;11.892;2022-07-29T14:38:34;30.20;79.80
5200;DHT22;2619;47.868;11.892;2022-07-29T14:41:00;29.90;78.10
5200;DHT22;2619;47.868;11.892;2022-07-29T14:43:26;29.70;82.00
5200;DHT22;2619;47.868;11.892;2022-07-29T14:45:51;29.80;82.20
5200;DHT22;2619;47.868;11.892;2022-07-29T14:48:17;29.90;83.10
5200;DHT22;2619;47.868;11.892;2022-07-29T14:50:43;29.80;81.00
5200;DHT22;2619;47.868;11.892;2022-07-29T14:53:08;29.60;82.50
5200;DHT22;2619;47.868;11.892;2022-07-29T14:55:34;29.50;82.50
5200;DHT22;2619;47.868;11.892;2022-07-29T14:58:00;29.60;84.00
5200;DHT22;2619;47.868;11.892;2022-07-29T15:00:26;29.50;83.30
5200;DHT22;2619;47.868;11.892;2022-07-29T15:02:52;29.40;82.60
5200;DHT22;2619;47.868;11.892;2022-07-29T15:05:17;29.50;83.70
5200;DHT22;2619;47.868;11.892;2022-07-29T15:07:43;29.40;81.90
5200;DHT22;2619;47.868;11.892;2022-07-29T15:10:09;29.30;82.50
5200;DHT22;2619;47.868;11.892;2022-07-29T15:12:34;29.40;83.10
5200;DHT22;2619;47.868;11.892;2022-07-29T15:15:00;29.60;84.00
5200;DHT22;2619;47.868;11.892;2022-07-29T15:17:26;29.70;83.50
5200;DHT22;2619;47.868;11.892;2022-07-29T15:19:51;29.70;83.70
5200;DHT22;2619;47.868;11.892;2022-07-29T15:22:17;30.00;85.10
5200;DHT22;2619;47.868;11.892;2022-07-29T15:24:43;30.20;85.00
5200;DHT22;2619;47.868;11.892;2022-07-29T15:27:09;30.00;85.20
5200;DHT22;2619;47.868;11.892;2022-07-29T15:29:40;29.90;88.80
5200;DHT22;2619;47.868;11.892;2022-07-29T15:32:06;29.50;81.60
5200;DHT22;2619;47.868;11.892;2022-07-29T15:34:32;29.10;83.50
5200;DHT22;2619;47.868;11.892;2022-07-29T15:36:57;28.90;90.20
5200;DHT22;2619;47.868;11.892;2022-07-29T15:39:23;28.60;92.10
5200;DHT22;2619;47.868;11.892;2022-07-29T15:41:49;28.30;92.90
5200;DHT22;2619;47.868;11.892;2022-07-29T15:44:15;28.00;92.90
5200;DHT22;2619;47.868;11.892;2022-07-29T15:46:40;27.70;93.60
5200;DHT22;2619;47.868;11.892;2022-07-29T15:49:24;27.30;93.90
5200;DHT22;2619;47.868;11.892;2022-07-29T15:51:59;26.80;93.80
5200;DHT22;2619;47.868;11.892;2022-07-29T15:54:26;26.40;93.40
5200;DHT22;2619;47.868;11.892;2022-07-29T15:56:53;26.20;94.80
5200;DHT22;2619;47.868;11.892;2022-07-29T15:59:19;25.90;96.10
5200;DHT22;2619;47.868;11.892;2022-07-29T16:01:44;25.30;96.30
5200;DHT22;2619;47.868;11.892;2022-07-29T16:04:10;24.40;98.90
5200;DHT22;2619;47.868;11.892;2022-07-29T16:06:36;23.80;99.90
5200;DHT22;2619;47.868;11.892;2022-07-29T16:09:02;23.10;99.90
5200;DHT22;2619;47.868;11.892;2022-07-29T16:11:28;22.70;99.90
5200;DHT22;2619;47.868;11.892;2022-07-29T16:13:53;22.30;99.90
5200;DHT22;2619;47.868;11.892;2022-07-29T16:16:19;22.00;99.90
5200;DHT22;2619;47.868;11.892;2022-07-29T16:18:45;21.70;99.90
5200;DHT22;2619;47.868;11.892;2022-07-29T16:21:11;21.50;99.90
5200;DHT22;2619;47.868;11.892;2022-07-29T16:23:38;21.30;99.90
5200;DHT22;2619;47.868;11.892;2022-07-29T16:26:04;21.20;99.90
5200;DHT22;2619;47.868;11.892;2022-07-29T16:28:30;20.90;99.90
5200;DHT22;2619;47.868;11.892;2022-07-29T16:30:55;20.70;99.90
5200;DHT22;2619;47.868;11.892;2022-07-29T16:33:22;20.60;99.90
5200;DHT22;2619;47.868;11.892;2022-07-29T16:35:48;20.40;99.90